createdAt,value
2022-12-25T00:01:46.349Z,101014.88
2022-12-25T00:04:14.163Z,101031.31
2022-12-25T00:06:41.952Z,101019.22
2022-12-25T00:09:09.735Z,101025.28
2022-12-25T00:11:37.547Z,101036.50
2022-12-25T00:14:05.432Z,101030.53
2022-12-25T00:16:33.354Z,101047.81
2022-12-25T00:19:02.601Z,101046.06
2022-12-25T00:21:30.516Z,101046.09
2022-12-25T00:23:59.821Z,101040.91
2022-12-25T00:26:28.729Z,101037.50
2022-12-25T00:28:58.354Z,101043.53
2022-12-25T00:31:27.596Z,101037.44
2022-12-25T00:33:55.491Z,101026.25
2022-12-25T00:36:25.211Z,101009.00
2022-12-25T00:38:52.989Z,101037.50
2022-12-25T00:41:44.363Z,101038.31
2022-12-25T00:44:14.647Z,100945.19
2022-12-25T00:46:43.237Z,101037.50
2022-12-25T00:49:11.548Z,101049.53
2022-12-25T00:51:40.726Z,101039.16
2022-12-25T00:54:09.200Z,101040.03
2022-12-25T00:56:37.057Z,101049.53
2022-12-25T00:59:04.874Z,101044.34
2022-12-25T01:01:33.404Z,101032.31
2022-12-25T01:04:01.843Z,101025.41
2022-12-25T01:06:29.784Z,101027.13
2022-12-25T01:09:17.110Z,101045.22
2022-12-25T01:11:45.510Z,101055.56
2022-12-25T01:14:13.288Z,101049.53
2022-12-25T01:16:41.152Z,101042.63
2022-12-25T01:19:09.489Z,101042.63
2022-12-25T01:21:37.281Z,101044.34
2022-12-25T01:24:07.058Z,101049.53
2022-12-25T01:26:34.864Z,101040.84
2022-12-25T01:29:03.128Z,101052.06
2022-12-25T01:31:30.989Z,101048.63
2022-12-25T01:33:58.895Z,101047.75
2022-12-25T01:36:27.826Z,101046.94
2022-12-25T01:38:56.047Z,101054.66
2022-12-25T01:41:26.250Z,100969.31
2022-12-25T01:44:00.495Z,101067.69
2022-12-25T01:46:28.376Z,101053.81
2022-12-25T01:48:59.266Z,101063.34
2022-12-25T01:51:31.372Z,101063.31
2022-12-25T01:54:03.412Z,101067.66
2022-12-25T01:56:33.243Z,101070.22
2022-12-25T01:59:03.104Z,101064.19
2022-12-25T02:01:31.070Z,101075.41
2022-12-25T02:04:06.349Z,101071.13
2022-12-25T02:06:35.707Z,100984.81
2022-12-25T02:09:04.369Z,101082.34
2022-12-25T02:11:51.133Z,101076.28
2022-12-25T02:14:19.145Z,101070.28
2022-12-25T02:16:58.204Z,101075.47
2022-12-25T02:19:40.397Z,101071.97
2022-12-25T02:22:16.606Z,101072.88
2022-12-25T02:25:12.001Z,101082.34
2022-12-25T02:28:02.157Z,101089.28
2022-12-25T02:30:37.563Z,101091.88
2022-12-25T02:33:29.521Z,101112.63
2022-12-25T02:35:59.507Z,101087.56
2022-12-25T02:38:34.340Z,101080.63
2022-12-25T02:41:07.615Z,101085.78
2022-12-25T02:44:00.211Z,101081.47
2022-12-25T02:46:48.913Z,101081.50
2022-12-25T02:49:52.607Z,101093.56
2022-12-25T02:52:41.832Z,101095.31
2022-12-25T02:55:31.259Z,101095.34
2022-12-25T02:58:21.179Z,101096.22
2022-12-25T03:01:13.223Z,101095.34
2022-12-25T03:04:00.243Z,101086.72
2022-12-25T03:06:46.561Z,101108.31
2022-12-25T03:09:35.960Z,101085.88
2022-12-25T03:12:11.026Z,101045.28
2022-12-25T03:14:57.473Z,101076.34
2022-12-25T03:17:26.809Z,101072.03
2022-12-25T03:20:12.063Z,101068.56
2022-12-25T03:23:01.311Z,101071.19
2022-12-25T03:25:47.827Z,101074.66
2022-12-25T03:28:15.678Z,101072.94
2022-12-25T03:31:02.299Z,101042.69
2022-12-25T03:33:46.685Z,101057.38
2022-12-25T03:36:22.235Z,101049.59
2022-12-25T03:39:31.042Z,101046.16
2022-12-25T03:42:20.923Z,101059.09
2022-12-25T03:45:21.225Z,101056.50
2022-12-25T03:48:06.891Z,101046.16
2022-12-25T03:50:57.461Z,101053.06
2022-12-25T03:53:47.682Z,101042.69
2022-12-25T03:56:35.888Z,101040.97
2022-12-25T03:59:23.901Z,101035.75
2022-12-25T04:02:10.333Z,100997.81
2022-12-25T04:04:56.505Z,101040.97
2022-12-25T04:07:39.734Z,101036.59
2022-12-25T04:10:26.689Z,101038.38
2022-12-25T04:13:12.150Z,101049.59
2022-12-25T04:15:57.564Z,101041.81
2022-12-25T04:18:42.721Z,101025.41
2022-12-25T04:21:28.407Z,101016.78
2022-12-25T04:24:15.207Z,101002.13
2022-12-25T04:27:00.520Z,101017.69
2022-12-25T04:29:46.030Z,100999.56
2022-12-25T04:32:42.542Z,101019.41
2022-12-25T04:35:28.149Z,101010.78
2022-12-25T04:37:55.923Z,101022.88
2022-12-25T04:40:25.087Z,101002.13
2022-12-25T04:42:53.244Z,100994.38
2022-12-25T04:45:21.049Z,101001.28
2022-12-25T04:47:48.891Z,100996.09
2022-12-25T04:50:16.688Z,101003.81
2022-12-25T04:52:44.506Z,100990.03
2022-12-25T04:55:13.422Z,101001.28
2022-12-25T04:57:42.605Z,100993.50
2022-12-25T05:00:11.362Z,100997.00
2022-12-25T05:02:39.312Z,100995.22
2022-12-25T05:05:07.752Z,100993.53
2022-12-25T05:07:35.559Z,100995.25
2022-12-25T05:10:03.409Z,100956.44
2022-12-25T05:12:31.230Z,100974.53
2022-12-25T05:15:00.415Z,100983.22
2022-12-25T05:17:28.221Z,100988.41
2022-12-25T05:19:56.058Z,100967.69
2022-12-25T05:22:23.836Z,100973.72
2022-12-25T05:24:51.630Z,100978.91
2022-12-25T05:27:19.421Z,100978.03
2022-12-25T05:29:47.242Z,100982.34
2022-12-25T05:32:16.544Z,100982.34
2022-12-25T05:34:44.351Z,100975.44
2022-12-25T05:37:12.125Z,100987.53
2022-12-25T05:39:39.895Z,100982.31
2022-12-25T05:42:07.691Z,100978.84
2022-12-25T05:44:35.479Z,100979.72
2022-12-25T05:47:03.339Z,100972.84
2022-12-25T05:49:32.532Z,100982.31
2022-12-25T05:52:00.318Z,100966.81
2022-12-25T05:54:28.134Z,100975.41
2022-12-25T05:56:55.922Z,100973.66
2022-12-25T05:59:23.748Z,100979.69
2022-12-25T06:01:51.659Z,100957.28
2022-12-25T06:04:19.576Z,100975.38
2022-12-25T06:06:48.725Z,100977.09
2022-12-25T06:09:16.588Z,100952.09
2022-12-25T06:11:44.371Z,100969.31
2022-12-25T06:14:12.927Z,100980.53
2022-12-25T06:16:41.065Z,100976.22
2022-12-25T06:19:09.420Z,100970.19
2022-12-25T06:21:37.231Z,100975.31
2022-12-25T06:24:06.946Z,100973.56
2022-12-25T06:26:34.823Z,100923.59
2022-12-25T06:29:02.667Z,100962.34
2022-12-25T06:31:30.593Z,100983.09
2022-12-25T06:33:58.406Z,100957.19
2022-12-25T06:36:29.232Z,100971.00
2022-12-25T06:38:57.867Z,100965.81
2022-12-25T06:41:29.041Z,100965.81
2022-12-25T06:43:59.423Z,100967.53
2022-12-25T06:46:29.422Z,100972.72
2022-12-25T06:48:59.102Z,100908.06
2022-12-25T06:51:28.865Z,100962.34
2022-12-25T06:53:58.322Z,100930.47
2022-12-25T06:56:29.074Z,100975.31
2022-12-25T06:58:58.868Z,100981.34
2022-12-25T07:01:30.064Z,100971.81
2022-12-25T07:04:00.928Z,100973.53
2022-12-25T07:06:29.452Z,100988.25
2022-12-25T07:08:57.285Z,100980.41
2022-12-25T07:11:25.453Z,100970.09
2022-12-25T07:13:54.694Z,100968.34
2022-12-25T07:16:22.563Z,100987.31
2022-12-25T07:18:50.580Z,100973.56
2022-12-25T07:21:20.467Z,100971.81
2022-12-25T07:23:50.453Z,100965.72
2022-12-25T07:26:18.448Z,100974.41
2022-12-25T07:28:46.447Z,100986.44
2022-12-25T07:31:18.086Z,100992.47
2022-12-25T07:33:46.240Z,100985.56
2022-12-25T07:36:14.930Z,100980.38
2022-12-25T07:38:42.796Z,100976.91
2022-12-25T07:41:10.869Z,100979.53
2022-12-25T07:43:38.877Z,100965.72
2022-12-25T07:46:07.158Z,100946.81
2022-12-25T07:48:36.969Z,100956.25
2022-12-25T07:51:07.705Z,100961.47
2022-12-25T07:53:36.873Z,100963.97
2022-12-25T07:56:07.314Z,100967.34
2022-12-25T07:58:35.590Z,100973.44
2022-12-25T08:01:05.691Z,100975.13
2022-12-25T08:03:34.562Z,100973.38
2022-12-25T08:06:06.060Z,100950.16
2022-12-25T08:08:34.565Z,100963.91
2022-12-25T08:11:02.392Z,100961.28
2022-12-25T08:13:31.805Z,100956.00
2022-12-25T08:16:00.400Z,100957.75
2022-12-25T08:18:30.247Z,100951.78
2022-12-25T08:20:58.590Z,100964.66
2022-12-25T08:23:27.790Z,100964.56
2022-12-25T08:26:04.453Z,100963.69
2022-12-25T08:28:34.670Z,100968.00
2022-12-25T08:31:07.863Z,100969.72
2022-12-25T08:33:37.067Z,100964.56
2022-12-25T08:36:05.858Z,100971.41
2022-12-25T08:38:35.224Z,100942.09
2022-12-25T08:41:03.426Z,100968.88
2022-12-25T08:43:31.372Z,100949.09
2022-12-25T08:45:59.287Z,100964.50
2022-12-25T08:48:27.298Z,100967.97
2022-12-25T08:50:55.835Z,100971.34
2022-12-25T08:53:24.446Z,100973.09
2022-12-25T08:56:00.110Z,100962.88
2022-12-25T08:58:28.247Z,100967.97
2022-12-25T09:00:56.231Z,100975.66
2022-12-25T09:03:24.394Z,100973.06
2022-12-25T09:05:55.817Z,100985.97
2022-12-25T09:08:24.020Z,100985.09
2022-12-25T09:10:51.778Z,100997.28
2022-12-25T09:13:20.922Z,100994.59
2022-12-25T09:15:48.737Z,100992.81
2022-12-25T09:18:16.722Z,100999.75
2022-12-25T09:20:44.511Z,101000.72
2022-12-25T09:23:14.343Z,100983.41
2022-12-25T09:25:42.319Z,100990.28
2022-12-25T09:28:10.139Z,100991.97
2022-12-25T09:30:39.620Z,100982.47
2022-12-25T09:33:07.521Z,100977.25
2022-12-25T09:35:35.617Z,100983.25
2022-12-25T09:38:03.499Z,100986.69
2022-12-25T09:40:33.326Z,100986.84
2022-12-25T09:43:03.108Z,100980.63
2022-12-25T09:45:35.826Z,100973.78
2022-12-25T09:48:05.773Z,100997.84
2022-12-25T09:50:42.555Z,100991.84
2022-12-25T09:53:16.745Z,100997.00
2022-12-25T09:55:51.756Z,100978.03
2022-12-25T09:58:19.581Z,100990.06
2022-12-25T10:00:55.611Z,100981.41
2022-12-25T10:03:47.045Z,100969.28
2022-12-25T10:06:21.913Z,100977.09
2022-12-25T10:09:17.869Z,100975.34
2022-12-25T10:12:01.499Z,100961.50
2022-12-25T10:14:37.100Z,100964.13
2022-12-25T10:17:24.002Z,100955.41
2022-12-25T10:20:02.100Z,100958.94
2022-12-25T10:22:35.812Z,100965.03
2022-12-25T10:25:06.959Z,100965.88
2022-12-25T10:27:39.049Z,100953.81
2022-12-25T10:30:15.905Z,100941.63
2022-12-25T10:32:44.209Z,100919.38
2022-12-25T10:35:15.690Z,100921.88
2022-12-25T10:37:45.696Z,100920.13
2022-12-25T10:40:29.409Z,100920.81
2022-12-25T10:43:05.780Z,100913.88
2022-12-25T10:45:44.134Z,100916.59
2022-12-25T10:48:20.438Z,100916.50
2022-12-25T10:50:50.282Z,100915.66
2022-12-25T10:53:23.554Z,100804.78
2022-12-25T10:56:01.852Z,100898.38
2022-12-25T10:58:30.686Z,100914.78
2022-12-25T11:01:01.261Z,100892.31
2022-12-25T11:03:33.107Z,100918.97
2022-12-25T11:06:03.258Z,100893.28
2022-12-25T11:08:34.788Z,100930.25
2022-12-25T11:11:06.495Z,100933.66
2022-12-25T11:13:37.315Z,100937.97
2022-12-25T11:16:10.647Z,100925.00
2022-12-25T11:18:47.663Z,100919.81
2022-12-25T11:21:20.152Z,100876.00
2022-12-25T11:23:50.669Z,100914.78
2022-12-25T11:26:19.506Z,100916.38
2022-12-25T11:28:49.756Z,100910.28
2022-12-25T11:31:20.453Z,100900.81
2022-12-25T11:33:58.228Z,100902.50
2022-12-25T11:36:32.693Z,100902.47
2022-12-25T11:39:08.968Z,100905.09
2022-12-25T11:41:41.487Z,100896.56
2022-12-25T11:44:27.657Z,100883.47
2022-12-25T11:46:57.309Z,100879.97
2022-12-25T11:49:25.578Z,100887.78
2022-12-25T11:51:58.262Z,100884.28
2022-12-25T11:54:29.014Z,100899.84
2022-12-25T11:56:58.823Z,100887.81
2022-12-25T11:59:30.356Z,100868.91
2022-12-25T12:02:03.764Z,100903.31
2022-12-25T12:04:42.642Z,100899.81
2022-12-25T12:07:22.801Z,100903.31
2022-12-25T12:09:58.762Z,100914.53
2022-12-25T12:12:35.157Z,100908.56
2022-12-25T12:15:13.452Z,100912.00
2022-12-25T12:17:41.310Z,100903.41
2022-12-25T12:20:14.575Z,100897.31
2022-12-25T12:22:51.881Z,100903.34
2022-12-25T12:25:20.283Z,100905.06
2022-12-25T12:27:59.747Z,100900.72
2022-12-25T12:30:34.787Z,100886.97
2022-12-25T12:33:04.832Z,100899.00
2022-12-25T12:35:36.082Z,100897.28
2022-12-25T12:38:10.329Z,100905.00
2022-12-25T12:40:40.415Z,100891.19
2022-12-25T12:43:28.374Z,100879.13
2022-12-25T12:45:57.570Z,100885.03
2022-12-25T12:48:28.535Z,100875.47
2022-12-25T12:51:03.917Z,100866.91
2022-12-25T12:53:34.448Z,100872.16
2022-12-25T12:56:14.339Z,100874.72
2022-12-25T12:58:48.458Z,100883.28
2022-12-25T13:01:31.068Z,100854.91
2022-12-25T13:04:18.617Z,100879.84
2022-12-25T13:06:53.419Z,100870.28
2022-12-25T13:09:32.699Z,100875.47
2022-12-25T13:12:00.973Z,100872.97
2022-12-25T13:14:29.024Z,100853.09
2022-12-25T13:16:56.979Z,100851.25
2022-12-25T13:19:27.759Z,100849.63
2022-12-25T13:21:57.974Z,100854.00
2022-12-25T13:24:29.070Z,100840.13
2022-12-25T13:26:56.993Z,100844.69
2022-12-25T13:29:30.750Z,100841.16
2022-12-25T13:32:00.442Z,100837.63
2022-12-25T13:34:32.414Z,100838.38
2022-12-25T13:37:01.501Z,100837.53
2022-12-25T13:39:31.326Z,100840.13
2022-12-25T13:42:06.600Z,100806.44
2022-12-25T13:44:45.054Z,100818.50
2022-12-25T13:47:18.510Z,100820.38
2022-12-25T13:49:47.356Z,100836.59
2022-12-25T13:52:20.269Z,100791.00
2022-12-25T13:55:14.114Z,100818.44
2022-12-25T13:57:46.062Z,100823.63
2022-12-25T14:00:20.387Z,100834.72
2022-12-25T14:02:49.373Z,100819.28
2022-12-25T14:05:31.373Z,100830.56
2022-12-25T14:08:05.007Z,100840.91
2022-12-25T14:10:39.033Z,100822.59
2022-12-25T14:13:09.561Z,100796.97
2022-12-25T14:15:40.763Z,100828.00
2022-12-25T14:18:14.669Z,100819.41
2022-12-25T14:20:55.817Z,100818.44
2022-12-25T14:23:23.649Z,100824.69
2022-12-25T14:25:53.333Z,100825.38
2022-12-25T14:28:24.830Z,100822.88
2022-12-25T14:30:53.008Z,100804.84
2022-12-25T14:33:23.733Z,100809.84
2022-12-25T14:35:52.501Z,100805.47
2022-12-25T14:38:25.352Z,100790.84
2022-12-25T14:41:02.152Z,100790.81
2022-12-25T14:43:31.414Z,100795.88
2022-12-25T14:46:01.024Z,100772.63
2022-12-25T14:48:30.699Z,100735.75
2022-12-25T14:51:03.517Z,100776.94
2022-12-25T14:53:37.528Z,100754.75
2022-12-25T14:56:09.040Z,100777.94
2022-12-25T14:58:42.667Z,100712.53
2022-12-25T15:01:22.869Z,100791.59
2022-12-25T15:03:50.928Z,100687.56
2022-12-25T15:06:21.049Z,100757.94
2022-12-25T15:08:57.068Z,100777.00
2022-12-25T15:11:26.296Z,100778.50
2022-12-25T15:13:54.144Z,100770.88
2022-12-25T15:16:24.355Z,100782.06
2022-12-25T15:18:53.158Z,100747.66
2022-12-25T15:21:26.360Z,100757.84
2022-12-25T15:23:54.899Z,100752.66
2022-12-25T15:26:22.988Z,100773.31
2022-12-25T15:28:52.280Z,100771.56
2022-12-25T15:31:23.446Z,100738.22
2022-12-25T15:33:51.474Z,100768.19
2022-12-25T15:36:19.524Z,100748.31
2022-12-25T15:38:47.390Z,100743.28
2022-12-25T15:41:37.702Z,100757.81
2022-12-25T15:44:07.869Z,100763.94
2022-12-25T15:46:36.136Z,100765.53
2022-12-25T15:49:04.051Z,100740.63
2022-12-25T15:51:31.870Z,100754.38
2022-12-25T15:54:00.044Z,100740.81
2022-12-25T15:56:28.944Z,100756.22
2022-12-25T15:58:56.759Z,100749.38
2022-12-25T16:01:26.042Z,100739.84
2022-12-25T16:03:54.070Z,100741.63
2022-12-25T16:06:21.915Z,100715.00
2022-12-25T16:08:49.707Z,100737.25
2022-12-25T16:11:17.554Z,100728.69
2022-12-25T16:13:45.351Z,100734.69
2022-12-25T16:16:13.248Z,100743.38
2022-12-25T16:18:47.392Z,100690.94
2022-12-25T16:21:18.415Z,100720.16
2022-12-25T16:23:47.445Z,100693.53
2022-12-25T16:26:15.273Z,100733.91
2022-12-25T16:28:43.243Z,100727.91
2022-12-25T16:31:12.346Z,100727.06
2022-12-25T16:33:40.132Z,100702.16
2022-12-25T16:36:10.097Z,100690.97
2022-12-25T16:38:38.211Z,100716.69
2022-12-25T16:41:06.270Z,100709.75
2022-12-25T16:43:34.016Z,100728.66
2022-12-25T16:46:01.858Z,100720.94
2022-12-25T16:48:30.281Z,100720.19
2022-12-25T16:50:58.039Z,100708.72
2022-12-25T16:53:27.199Z,100716.44
2022-12-25T16:56:06.401Z,100715.41
2022-12-25T16:58:34.351Z,100700.00
2022-12-25T17:01:09.640Z,100714.75
2022-12-25T17:03:38.380Z,100714.72
2022-12-25T17:06:13.395Z,100703.41
2022-12-25T17:08:43.299Z,100695.56
2022-12-25T17:11:11.163Z,100701.59
2022-12-25T17:13:39.345Z,100693.94
2022-12-25T17:16:16.736Z,100696.53
2022-12-25T17:18:44.725Z,100694.72
2022-12-25T17:21:14.548Z,100654.41
2022-12-25T17:23:45.070Z,100693.88
2022-12-25T17:26:13.026Z,100694.72
2022-12-25T17:28:40.832Z,100691.38
2022-12-25T17:31:10.406Z,100660.50
2022-12-25T17:33:39.267Z,100677.44
2022-12-25T17:36:09.576Z,100687.69
2022-12-25T17:38:38.083Z,100585.47
2022-12-25T17:41:10.682Z,100678.41
2022-12-25T17:43:40.225Z,100685.28
2022-12-25T17:46:09.875Z,100631.94
2022-12-25T17:48:37.846Z,100690.41
2022-12-25T17:51:08.039Z,100680.22
2022-12-25T17:53:36.792Z,100633.06
2022-12-25T17:56:05.017Z,100680.31
2022-12-25T17:58:34.418Z,100675.59
2022-12-25T18:01:07.429Z,100671.34
2022-12-25T18:03:36.800Z,100658.31
2022-12-25T18:06:05.017Z,100640.31
2022-12-25T18:08:38.923Z,100673.72
2022-12-25T18:11:09.039Z,100666.16
2022-12-25T18:13:40.513Z,100638.63
2022-12-25T18:16:08.992Z,100654.22
2022-12-25T18:18:36.976Z,100658.38
2022-12-25T18:21:05.057Z,100638.41
2022-12-25T18:23:32.929Z,100641.81
2022-12-25T18:26:02.575Z,100623.00
2022-12-25T18:28:30.768Z,100627.28
2022-12-25T18:31:00.289Z,100639.22
2022-12-25T18:33:29.021Z,100635.16
2022-12-25T18:35:59.012Z,100587.06
2022-12-25T18:38:28.447Z,100628.19
2022-12-25T18:40:56.246Z,100636.66
2022-12-25T18:43:52.185Z,100635.72
2022-12-25T18:46:13.441Z,100621.22
2022-12-25T18:48:41.299Z,100628.25
2022-12-25T18:51:11.686Z,100622.16
2022-12-25T18:53:40.056Z,100622.97
2022-12-25T18:56:11.043Z,100628.78
2022-12-25T18:58:39.541Z,100580.69
2022-12-25T19:01:13.481Z,100614.03
2022-12-25T19:03:41.847Z,100574.19
2022-12-25T19:06:09.749Z,100595.22
2022-12-25T19:08:37.531Z,100564.47
2022-12-25T19:11:09.235Z,100586.66
2022-12-25T19:13:37.073Z,100584.94
2022-12-25T19:16:05.649Z,100579.03
2022-12-25T19:18:34.987Z,100581.47
2022-12-25T19:21:03.254Z,100538.56
2022-12-25T19:23:31.113Z,100561.97
2022-12-25T19:25:58.927Z,100577.22
2022-12-25T19:28:26.964Z,100567.69
2022-12-25T19:30:55.084Z,100555.72
2022-12-25T19:33:23.303Z,100567.84
2022-12-25T19:35:52.492Z,100560.81
2022-12-25T19:38:20.735Z,100565.13
2022-12-25T19:41:01.183Z,100556.44
2022-12-25T19:43:29.946Z,100529.00
2022-12-25T19:45:58.265Z,100552.09
2022-12-25T19:48:26.513Z,100549.56
2022-12-25T19:50:55.712Z,100544.41
2022-12-25T19:53:24.285Z,100545.28
2022-12-25T19:55:53.573Z,100506.72
2022-12-25T19:58:21.884Z,100546.06
2022-12-25T20:00:58.844Z,100546.88
2022-12-25T20:03:26.965Z,100536.50
2022-12-25T20:05:56.564Z,100537.53
2022-12-25T20:08:24.833Z,100534.81
2022-12-25T20:10:52.790Z,100529.59
2022-12-25T20:13:21.331Z,100536.44
2022-12-25T20:15:49.784Z,100537.31
2022-12-25T20:18:18.007Z,100515.03
2022-12-25T20:20:46.239Z,100506.63
2022-12-25T20:23:15.407Z,100518.59
2022-12-25T20:25:43.455Z,100537.56
2022-12-25T20:28:11.346Z,100540.09
2022-12-25T20:30:40.509Z,100520.97
2022-12-25T20:33:08.406Z,100530.72
2022-12-25T20:35:36.190Z,100534.81
2022-12-25T20:38:04.454Z,100526.28
2022-12-25T20:40:53.063Z,100531.53
2022-12-25T20:43:21.389Z,100534.91
2022-12-25T20:45:52.633Z,100531.38
2022-12-25T20:48:20.471Z,100530.59
2022-12-25T20:50:48.298Z,100530.50
2022-12-25T20:53:16.131Z,100525.56
2022-12-25T20:55:46.937Z,100516.78
2022-12-25T20:58:15.107Z,100512.47
2022-12-25T21:00:44.175Z,100528.88
2022-12-25T21:03:13.050Z,100522.00
2022-12-25T21:05:49.787Z,100520.31
2022-12-25T21:08:17.980Z,100526.53
2022-12-25T21:10:50.476Z,100498.00
2022-12-25T21:13:18.368Z,100492.78
2022-12-25T21:15:47.124Z,100505.56
2022-12-25T21:18:15.254Z,100493.72
2022-12-25T21:20:44.831Z,100514.19
2022-12-25T21:23:12.646Z,100502.97
2022-12-25T21:25:40.479Z,100510.78
2022-12-25T21:28:10.212Z,100499.66
2022-12-25T21:30:38.233Z,100450.63
2022-12-25T21:33:23.730Z,100509.84
2022-12-25T21:35:51.533Z,100486.50
2022-12-25T21:38:19.327Z,100489.78
2022-12-25T21:40:47.140Z,100486.50
2022-12-25T21:43:16.308Z,100479.69
2022-12-25T21:45:44.163Z,100442.00
2022-12-25T21:48:13.334Z,100497.56
2022-12-25T21:50:58.387Z,100496.69
2022-12-25T21:53:26.177Z,100480.31
2022-12-25T21:55:58.337Z,100507.00
2022-12-25T21:58:27.662Z,100492.41
2022-12-25T22:00:55.592Z,100476.31
2022-12-25T22:03:25.055Z,100482.03
2022-12-25T22:06:12.023Z,100467.41
2022-12-25T22:08:42.716Z,100442.00
2022-12-25T22:11:31.019Z,100474.50
2022-12-25T22:14:17.732Z,100474.25
2022-12-25T22:17:03.260Z,100481.97
2022-12-25T22:19:48.097Z,100472.44
2022-12-25T22:22:17.262Z,100480.19
2022-12-25T22:24:45.301Z,100461.34
2022-12-25T22:27:13.104Z,100469.84
2022-12-25T22:29:42.527Z,100472.56
2022-12-25T22:32:11.442Z,100469.94
2022-12-25T22:34:39.309Z,100462.00
2022-12-25T22:37:08.441Z,100465.44
2022-12-25T22:39:36.500Z,100464.53
2022-12-25T22:42:04.369Z,100413.88
2022-12-25T22:44:33.840Z,100420.81
2022-12-25T22:47:03.183Z,100460.16
2022-12-25T22:49:31.410Z,100463.66
2022-12-25T22:51:59.174Z,100454.91
2022-12-25T22:54:31.065Z,100458.38
2022-12-25T22:56:59.382Z,100455.00
2022-12-25T22:59:27.599Z,100451.47
2022-12-25T23:01:56.104Z,100418.97
2022-12-25T23:04:25.457Z,100430.88
2022-12-25T23:06:53.270Z,100454.06
2022-12-25T23:09:24.831Z,100438.41
2022-12-25T23:11:52.816Z,100441.88
2022-12-25T23:14:38.209Z,100443.56
2022-12-25T23:17:06.962Z,100444.44
2022-12-25T23:19:53.748Z,100444.44
2022-12-25T23:22:38.871Z,100441.00
2022-12-25T23:25:32.974Z,100438.59
2022-12-25T23:28:00.739Z,100441.97
2022-12-25T23:30:27.528Z,100440.28
2022-12-25T23:32:55.343Z,100447.22
2022-12-25T23:35:24.602Z,100429.94
2022-12-25T23:37:54.267Z,100444.66
2022-12-25T23:40:22.130Z,100439.78
2022-12-25T23:42:49.902Z,100435.38
2022-12-25T23:45:17.809Z,100444.78
2022-12-25T23:47:45.626Z,100439.59
2022-12-25T23:50:13.393Z,100449.00
2022-12-25T23:52:42.554Z,100436.28
2022-12-25T23:55:10.614Z,100433.47
2022-12-25T23:57:38.417Z,100427.34
